createdAt,value
2019-01-26T00:01:00.933Z,-2.21
2019-01-26T00:03:30.430Z,-2.25
2019-01-26T00:06:00.041Z,-2.27
2019-01-26T00:08:29.351Z,-2.32
2019-01-26T00:10:59.091Z,-2.21
2019-01-26T00:13:30.091Z,-2.25
2019-01-26T00:15:59.869Z,-2.24
2019-01-26T00:18:30.955Z,-2.37
2019-01-26T00:20:59.582Z,-2.41
2019-01-26T00:23:29.039Z,-2.42
2019-01-26T00:25:58.671Z,-2.45
2019-01-26T00:28:28.308Z,-2.40
2019-01-26T00:31:04.309Z,-2.44
2019-01-26T00:33:35.147Z,-2.43
2019-01-26T00:36:04.736Z,-2.41
2019-01-26T00:38:34.470Z,-2.34
2019-01-26T00:41:04.039Z,-2.27
2019-01-26T00:43:33.581Z,-2.44
2019-01-26T00:46:04.731Z,-2.30
2019-01-26T00:48:34.446Z,-2.34
2019-01-26T00:51:04.218Z,-2.37
2019-01-26T00:53:33.927Z,-2.53
2019-01-26T00:56:03.374Z,-2.68
2019-01-26T00:58:33.046Z,-2.75
2019-01-26T01:01:02.752Z,-2.81
2019-01-26T01:03:32.402Z,-2.86
2019-01-26T01:06:02.220Z,-2.81
2019-01-26T01:08:31.858Z,-2.84
2019-01-26T01:11:01.635Z,-2.93
2019-01-26T01:13:31.256Z,-2.87
2019-01-26T01:16:01.013Z,-2.91
2019-01-26T01:18:30.563Z,-3.07
2019-01-26T01:21:01.733Z,-3.05
2019-01-26T01:23:30.073Z,-3.12
2019-01-26T01:25:59.691Z,-3.07
2019-01-26T01:28:29.427Z,-3.10
2019-01-26T01:30:59.054Z,-3.17
2019-01-26T01:33:28.520Z,-3.22
2019-01-26T01:35:58.020Z,-3.12
2019-01-26T01:38:27.585Z,-3.10
2019-01-26T01:40:57.159Z,-3.14
2019-01-26T01:43:26.763Z,-3.08
2019-01-26T01:45:56.531Z,-3.11
2019-01-26T01:48:26.194Z,-3.19
2019-01-26T01:50:55.580Z,-3.07
2019-01-26T01:53:25.594Z,-3.10
2019-01-26T01:55:55.147Z,-3.17
2019-01-26T01:58:25.039Z,-3.18
2019-01-26T02:00:54.620Z,-3.14
2019-01-26T02:03:24.229Z,-3.14
2019-01-26T02:05:53.752Z,-3.11
2019-01-26T02:08:23.231Z,-3.10
2019-01-26T02:10:52.687Z,-3.00
2019-01-26T02:13:22.467Z,-3.16
2019-01-26T02:15:51.952Z,-3.16
2019-01-26T02:18:21.887Z,-3.26
2019-01-26T02:20:51.196Z,-3.25
2019-01-26T02:23:20.878Z,-3.35
2019-01-26T02:25:50.438Z,-3.22
2019-01-26T02:28:20.013Z,-3.30
2019-01-26T02:30:49.604Z,-3.27
2019-01-26T02:33:19.354Z,-3.31
2019-01-26T02:35:49.059Z,-3.32
2019-01-26T02:38:18.528Z,-3.27
2019-01-26T02:40:48.715Z,-3.24
2019-01-26T02:43:18.220Z,-3.13
2019-01-26T02:45:47.891Z,-3.23
2019-01-26T02:48:17.850Z,-3.29
2019-01-26T02:50:47.267Z,-3.28
2019-01-26T02:53:16.751Z,-3.29
2019-01-26T02:55:46.447Z,-3.40
2019-01-26T02:58:16.118Z,-3.39
2019-01-26T03:00:45.633Z,-3.34
2019-01-26T03:03:15.268Z,-3.36
2019-01-26T03:05:44.867Z,-3.36
2019-01-26T03:08:14.561Z,-3.40
2019-01-26T03:10:44.126Z,-3.38
2019-01-26T03:13:13.839Z,-3.46
2019-01-26T03:15:43.583Z,-3.43
2019-01-26T03:18:13.259Z,-3.37
2019-01-26T03:20:42.792Z,-3.43
2019-01-26T03:23:12.523Z,-3.39
2019-01-26T03:25:42.416Z,-3.41
2019-01-26T03:28:11.921Z,-3.43
2019-01-26T03:30:41.331Z,-3.41
2019-01-26T03:33:11.003Z,-3.54
2019-01-26T03:35:40.499Z,-3.39
2019-01-26T03:38:10.105Z,-3.31
2019-01-26T03:40:39.654Z,-3.29
2019-01-26T03:43:09.309Z,-3.32
2019-01-26T03:45:38.971Z,-3.33
2019-01-26T03:48:09.227Z,-3.45
2019-01-26T03:50:38.834Z,-3.50
2019-01-26T03:53:08.720Z,-3.47
2019-01-26T03:55:38.509Z,-3.42
2019-01-26T03:58:08.329Z,-3.40
2019-01-26T04:00:38.025Z,-3.38
2019-01-26T04:03:07.665Z,-3.41
2019-01-26T04:05:37.308Z,-3.47
2019-01-26T04:08:06.937Z,-3.51
2019-01-26T04:10:36.536Z,-3.46
2019-01-26T04:13:06.023Z,-3.50
2019-01-26T04:15:35.740Z,-3.52
2019-01-26T04:18:05.431Z,-3.56
2019-01-26T04:20:34.947Z,-3.67
2019-01-26T04:23:04.796Z,-3.67
2019-01-26T04:25:34.491Z,-3.64
2019-01-26T04:28:04.097Z,-3.59
2019-01-26T04:30:33.719Z,-3.61
2019-01-26T04:33:03.420Z,-3.63
2019-01-26T04:35:33.006Z,-3.68
2019-01-26T04:38:02.762Z,-3.71
2019-01-26T04:40:32.968Z,-3.76
2019-01-26T04:43:02.550Z,-3.73
2019-01-26T04:45:32.297Z,-3.75
2019-01-26T04:48:01.838Z,-3.71
2019-01-26T04:50:31.552Z,-3.66
2019-01-26T04:53:01.100Z,-3.73
2019-01-26T04:55:30.568Z,-3.67
2019-01-26T04:58:00.286Z,-3.68
2019-01-26T05:00:30.020Z,-3.67
2019-01-26T05:02:59.626Z,-3.68
2019-01-26T05:05:29.327Z,-3.56
2019-01-26T05:07:58.990Z,-3.53
2019-01-26T05:10:28.631Z,-3.48
2019-01-26T05:12:58.256Z,-3.51
2019-01-26T05:15:27.970Z,-3.56
2019-01-26T05:17:57.504Z,-3.70
2019-01-26T05:20:27.389Z,-3.75
2019-01-26T05:22:57.030Z,-3.78
2019-01-26T05:25:26.576Z,-3.78
2019-01-26T05:27:56.297Z,-3.80
2019-01-26T05:30:27.770Z,-3.80
2019-01-26T05:32:57.261Z,-3.81
2019-01-26T05:35:27.428Z,-3.82
2019-01-26T05:37:57.175Z,-3.73
2019-01-26T05:40:26.815Z,-3.82
2019-01-26T05:42:56.528Z,-3.87
2019-01-26T05:45:26.166Z,-3.85
2019-01-26T05:47:55.887Z,-3.83
2019-01-26T05:50:26.567Z,-3.76
2019-01-26T05:52:56.074Z,-3.69
2019-01-26T05:55:25.729Z,-3.66
2019-01-26T05:57:55.626Z,-3.75
2019-01-26T06:00:29.104Z,-3.76
2019-01-26T06:02:58.878Z,-3.67
2019-01-26T06:05:28.503Z,-3.65
2019-01-26T06:07:58.151Z,-3.63
2019-01-26T06:10:27.981Z,-3.63
2019-01-26T06:12:58.882Z,-3.65
2019-01-26T06:15:27.398Z,-3.64
2019-01-26T06:17:57.342Z,-3.71
2019-01-26T06:20:26.865Z,-3.71
2019-01-26T06:22:56.600Z,-3.72
2019-01-26T06:25:26.302Z,-3.75
2019-01-26T06:27:55.975Z,-3.75
2019-01-26T06:30:26.652Z,-3.80
2019-01-26T06:32:56.355Z,-3.87
2019-01-26T06:35:26.132Z,-3.90
2019-01-26T06:37:55.736Z,-3.93
2019-01-26T06:40:25.260Z,-3.85
2019-01-26T06:42:55.039Z,-3.82
2019-01-26T06:45:24.799Z,-3.83
2019-01-26T06:47:54.306Z,-3.85
2019-01-26T06:50:26.714Z,-3.90
2019-01-26T06:52:56.307Z,-3.88
2019-01-26T06:55:26.045Z,-3.92
2019-01-26T06:57:55.881Z,-3.88
2019-01-26T07:00:29.747Z,-3.83
2019-01-26T07:02:59.513Z,-3.91
2019-01-26T07:05:38.111Z,-3.97
2019-01-26T07:08:08.023Z,-3.95
2019-01-26T07:10:37.564Z,-3.99
2019-01-26T07:13:07.312Z,-3.98
2019-01-26T07:15:36.736Z,-3.98
2019-01-26T07:18:09.587Z,-4.09
2019-01-26T07:20:36.258Z,-4.09
2019-01-26T07:23:06.040Z,-4.01
2019-01-26T07:25:35.624Z,-3.97
2019-01-26T07:28:05.135Z,-3.89
2019-01-26T07:30:34.895Z,-3.94
2019-01-26T07:33:04.706Z,-4.12
2019-01-26T07:35:34.423Z,-4.12
2019-01-26T07:38:04.233Z,-4.17
2019-01-26T07:40:34.028Z,-4.11
2019-01-26T07:43:03.507Z,-4.15
2019-01-26T07:45:33.347Z,-4.05
2019-01-26T07:48:02.851Z,-4.15
2019-01-26T07:50:32.431Z,-4.21
2019-01-26T07:53:02.171Z,-4.21
2019-01-26T07:55:31.780Z,-4.13
2019-01-26T07:58:01.345Z,-4.22
2019-01-26T08:00:30.999Z,-4.07
2019-01-26T08:03:00.604Z,-4.11
2019-01-26T08:05:30.173Z,-4.12
2019-01-26T08:07:59.722Z,-4.10
2019-01-26T08:10:29.399Z,-4.11
2019-01-26T08:12:58.940Z,-4.12
2019-01-26T08:15:32.215Z,-4.05
2019-01-26T08:18:01.923Z,-4.09
2019-01-26T08:20:31.640Z,-4.06
2019-01-26T08:23:01.151Z,-4.00
2019-01-26T08:25:30.930Z,-3.86
2019-01-26T08:28:00.619Z,-3.84
2019-01-26T08:30:30.156Z,-3.89
2019-01-26T08:32:59.871Z,-3.94
2019-01-26T08:35:29.585Z,-4.03
2019-01-26T08:37:59.435Z,-4.18
2019-01-26T08:40:29.175Z,-4.16
2019-01-26T08:42:58.771Z,-4.26
2019-01-26T08:45:28.451Z,-4.23
2019-01-26T08:47:58.015Z,-4.20
2019-01-26T08:50:27.668Z,-4.10
2019-01-26T08:52:58.995Z,-4.09
2019-01-26T08:55:28.406Z,-4.01
2019-01-26T08:57:58.032Z,-3.95
2019-01-26T09:00:28.536Z,-4.11
2019-01-26T09:05:06.021Z,-4.05
2019-01-26T09:07:35.884Z,-4.11
2019-01-26T09:10:05.696Z,-4.18
2019-01-26T09:12:35.162Z,-4.25
2019-01-26T09:15:05.123Z,-4.17
2019-01-26T09:17:34.689Z,-3.88
2019-01-26T09:20:04.370Z,-4.03
2019-01-26T09:22:34.049Z,-4.00
2019-01-26T09:25:03.952Z,-3.86
2019-01-26T09:27:33.669Z,-3.66
2019-01-26T09:30:03.412Z,-3.40
2019-01-26T09:32:32.845Z,-3.42
2019-01-26T09:35:02.483Z,-3.55
2019-01-26T09:37:32.415Z,-3.38
2019-01-26T09:40:01.884Z,-3.35
2019-01-26T09:42:31.685Z,-3.33
2019-01-26T09:45:01.343Z,-3.29
2019-01-26T09:47:30.909Z,-3.19
2019-01-26T09:50:00.415Z,-3.07
2019-01-26T09:52:30.177Z,-3.23
2019-01-26T09:54:59.948Z,-3.32
2019-01-26T09:57:29.587Z,-3.24
2019-01-26T09:59:59.321Z,-3.41
2019-01-26T10:02:28.950Z,-3.60
2019-01-26T10:04:58.467Z,-3.63
2019-01-26T10:07:28.374Z,-3.49
2019-01-26T10:09:58.095Z,-3.34
2019-01-26T10:12:27.655Z,-3.55
2019-01-26T10:14:57.450Z,-3.57
2019-01-26T10:17:26.917Z,-3.64
2019-01-26T10:19:56.540Z,-3.62
2019-01-26T10:22:26.063Z,-3.63
2019-01-26T10:24:55.433Z,-3.53
2019-01-26T10:27:24.916Z,-3.48
2019-01-26T10:29:54.599Z,-3.36
2019-01-26T10:32:24.340Z,-3.34
2019-01-26T10:34:53.868Z,-3.32
2019-01-26T10:37:25.624Z,-3.33
2019-01-26T10:39:55.279Z,-3.26
2019-01-26T10:42:27.305Z,-3.33
2019-01-26T10:44:57.101Z,-3.33
2019-01-26T10:47:26.663Z,-3.17
2019-01-26T10:49:56.254Z,-3.08
2019-01-26T10:52:25.951Z,-3.07
2019-01-26T10:54:55.651Z,-3.10
2019-01-26T10:57:25.179Z,-3.25
2019-01-26T10:59:54.774Z,-3.22
2019-01-26T11:02:24.387Z,-3.08
2019-01-26T11:04:54.408Z,-3.12
2019-01-26T11:07:24.093Z,-3.07
2019-01-26T11:09:53.668Z,-3.05
2019-01-26T11:12:23.135Z,-2.99
2019-01-26T11:14:52.838Z,-2.96
2019-01-26T11:17:22.431Z,-2.91
2019-01-26T11:19:52.177Z,-2.85
2019-01-26T11:22:21.870Z,-2.95
2019-01-26T11:24:51.579Z,-3.02
2019-01-26T11:27:21.212Z,-3.04
2019-01-26T11:29:51.131Z,-3.07
2019-01-26T11:32:20.690Z,-2.95
2019-01-26T11:34:50.398Z,-2.83
2019-01-26T11:37:20.064Z,-3.07
2019-01-26T11:39:53.767Z,-3.17
2019-01-26T11:42:23.440Z,-3.26
2019-01-26T11:44:58.076Z,-3.16
2019-01-26T11:47:27.574Z,-3.14
2019-01-26T11:49:59.221Z,-3.00
2019-01-26T11:52:28.829Z,-3.11
2019-01-26T11:55:14.007Z,-3.14
2019-01-26T11:57:43.619Z,-3.28
2019-01-26T12:00:29.131Z,-3.24
2019-01-26T12:03:09.928Z,-3.27
2019-01-26T12:05:44.785Z,-3.31
2019-01-26T12:08:14.537Z,-3.29
2019-01-26T12:10:44.023Z,-3.32
2019-01-26T12:13:14.069Z,-3.38
2019-01-26T12:15:43.583Z,-3.32
2019-01-26T12:18:13.243Z,-3.34
2019-01-26T12:20:42.900Z,-3.39
2019-01-26T12:23:12.598Z,-3.35
2019-01-26T12:25:42.266Z,-3.25
2019-01-26T12:28:12.183Z,-3.38
2019-01-26T12:30:41.786Z,-3.39
2019-01-26T12:33:11.313Z,-3.33
2019-01-26T12:35:41.056Z,-3.32
2019-01-26T12:38:10.522Z,-3.25
2019-01-26T12:40:40.231Z,-3.36
2019-01-26T12:43:09.884Z,-3.30
2019-01-26T12:45:39.279Z,-3.20
2019-01-26T12:48:08.604Z,-3.18
2019-01-26T12:50:38.344Z,-3.07
2019-01-26T12:53:07.804Z,-3.08
2019-01-26T12:55:38.893Z,-3.20
2019-01-26T12:58:08.597Z,-3.16
2019-01-26T13:00:38.167Z,-3.19
2019-01-26T13:03:07.827Z,-3.13
2019-01-26T13:05:37.443Z,-3.07
2019-01-26T13:08:06.984Z,-3.16
2019-01-26T13:10:39.858Z,-3.04
2019-01-26T13:13:09.422Z,-3.09
2019-01-26T13:15:39.513Z,-3.13
2019-01-26T13:18:09.127Z,-3.25
2019-01-26T13:20:38.618Z,-3.28
2019-01-26T13:23:08.384Z,-3.36
2019-01-26T13:25:38.124Z,-3.28
2019-01-26T13:28:07.641Z,-3.29
2019-01-26T13:30:37.309Z,-3.25
2019-01-26T13:33:06.972Z,-3.31
2019-01-26T13:35:36.739Z,-3.25
2019-01-26T13:38:06.407Z,-3.29
2019-01-26T13:40:36.284Z,-3.28
2019-01-26T13:43:05.977Z,-3.24
2019-01-26T13:45:35.703Z,-3.18
2019-01-26T13:48:05.451Z,-3.21
2019-01-26T13:50:35.224Z,-3.27
2019-01-26T13:53:05.148Z,-3.15
2019-01-26T13:55:35.077Z,-3.15
2019-01-26T13:58:06.225Z,-3.21
2019-01-26T14:00:35.632Z,-3.14
2019-01-26T14:03:05.403Z,-3.07
2019-01-26T14:05:35.025Z,-2.72
2019-01-26T14:08:04.610Z,-2.80
2019-01-26T14:10:34.410Z,-3.22
2019-01-26T14:13:04.195Z,-3.24
2019-01-26T14:15:33.768Z,-3.21
2019-01-26T14:18:03.435Z,-3.24
2019-01-26T14:20:33.189Z,-3.24
2019-01-26T14:23:02.919Z,-3.20
2019-01-26T14:25:32.635Z,-3.14
2019-01-26T14:28:02.344Z,-3.22
2019-01-26T14:30:35.948Z,-3.40
2019-01-26T14:33:05.855Z,-3.57
2019-01-26T14:35:35.560Z,-3.54
2019-01-26T14:38:10.630Z,-3.50
2019-01-26T14:40:40.383Z,-3.47
2019-01-26T14:43:10.099Z,-3.45
2019-01-26T14:45:39.637Z,-3.55
2019-01-26T14:48:09.293Z,-3.65
2019-01-26T14:50:38.907Z,-3.73
2019-01-26T14:53:08.911Z,-3.71
2019-01-26T14:55:38.955Z,-3.63
2019-01-26T14:58:10.591Z,-3.78
2019-01-26T15:00:40.336Z,-3.73
2019-01-26T15:03:09.924Z,-3.71
2019-01-26T15:05:39.588Z,-3.87
2019-01-26T15:08:09.284Z,-3.77
2019-01-26T15:10:39.058Z,-3.82
2019-01-26T15:13:08.800Z,-3.90
2019-01-26T15:15:38.488Z,-4.02
2019-01-26T15:18:08.372Z,-4.05
2019-01-26T15:20:39.743Z,-4.10
2019-01-26T15:23:09.605Z,-4.06
2019-01-26T15:25:39.066Z,-4.10
2019-01-26T15:28:08.810Z,-4.19
2019-01-26T15:30:40.438Z,-4.22
2019-01-26T15:33:11.189Z,-4.16
2019-01-26T15:35:40.005Z,-4.27
2019-01-26T15:38:10.819Z,-4.17
2019-01-26T15:40:40.580Z,-4.31
2019-01-26T15:46:07.906Z,-4.24
2019-01-26T15:48:37.330Z,-4.30
2019-01-26T15:51:07.062Z,-4.30
2019-01-26T15:53:36.735Z,-4.30
2019-01-26T15:56:06.475Z,-4.25
2019-01-26T15:58:36.010Z,-4.23
2019-01-26T16:01:07.328Z,-4.31
2019-01-26T16:03:36.934Z,-4.25
2019-01-26T16:06:06.829Z,-4.32
2019-01-26T16:08:36.771Z,-4.36
2019-01-26T16:11:06.400Z,-4.37
2019-01-26T16:13:35.998Z,-4.37
2019-01-26T16:16:05.654Z,-4.36
2019-01-26T16:18:35.568Z,-4.49
2019-01-26T16:21:05.277Z,-4.45
2019-01-26T16:23:35.022Z,-4.45
2019-01-26T16:26:04.497Z,-4.55
2019-01-26T16:28:34.147Z,-4.45
2019-01-26T16:31:03.839Z,-4.35
2019-01-26T16:33:33.615Z,-4.38
2019-01-26T16:36:03.107Z,-4.41
2019-01-26T16:38:32.920Z,-4.37
2019-01-26T16:41:02.646Z,-3.96
2019-01-26T16:43:32.385Z,-2.21
2019-01-26T16:46:01.995Z,-2.11
2019-01-26T16:48:31.835Z,0.68
2019-01-26T16:51:01.575Z,0.57
2019-01-26T16:53:31.409Z,-0.18
2019-01-26T16:56:01.064Z,-0.51
2019-01-26T16:58:30.692Z,-0.19
2019-01-26T17:01:01.349Z,1.23
2019-01-26T17:03:30.832Z,0.98
2019-01-26T17:06:00.429Z,0.03
2019-01-26T17:08:30.353Z,-0.58
2019-01-26T17:10:59.943Z,1.84
2019-01-26T17:13:29.676Z,0.16
2019-01-26T17:15:59.466Z,1.49
2019-01-26T17:18:28.976Z,0.60
2019-01-26T17:20:58.595Z,0.14
2019-01-26T17:23:28.263Z,3.02
2019-01-26T17:25:57.929Z,3.58
2019-01-26T17:28:27.407Z,1.88
2019-01-26T17:30:56.731Z,1.95
2019-01-26T17:33:26.632Z,2.63
2019-01-26T17:35:56.329Z,2.34
2019-01-26T17:38:26.112Z,4.50
2019-01-26T17:40:55.481Z,2.15
2019-01-26T17:43:24.945Z,2.40
2019-01-26T17:45:54.482Z,1.45
2019-01-26T17:48:24.185Z,0.55
2019-01-26T17:50:53.912Z,0.50
2019-01-26T17:53:23.401Z,2.19
2019-01-26T17:55:52.908Z,3.81
2019-01-26T17:58:22.660Z,4.09
2019-01-26T18:00:56.498Z,2.97
2019-01-26T18:03:26.328Z,2.17
2019-01-26T18:05:55.947Z,2.56
2019-01-26T18:08:25.647Z,3.10
2019-01-26T18:10:55.364Z,2.97
2019-01-26T18:13:25.065Z,2.79
2019-01-26T18:15:54.638Z,0.77
2019-01-26T18:18:24.301Z,-1.04
2019-01-26T18:20:53.890Z,-2.01
2019-01-26T18:23:31.511Z,-2.63
2019-01-26T18:26:01.147Z,-3.17
2019-01-26T18:28:30.654Z,-3.18
2019-01-26T18:31:00.493Z,-3.36
2019-01-26T18:33:30.356Z,-3.49
2019-01-26T18:35:59.835Z,-3.56
2019-01-26T18:38:29.256Z,-3.70
2019-01-26T18:40:58.954Z,-3.65
2019-01-26T18:43:28.565Z,-3.68
2019-01-26T18:45:58.119Z,-3.62
2019-01-26T18:48:27.723Z,-3.77
2019-01-26T18:50:57.299Z,-3.90
2019-01-26T18:53:27.752Z,-3.85
2019-01-26T18:55:57.344Z,-3.99
2019-01-26T18:58:26.827Z,-4.06
2019-01-26T19:00:56.584Z,-4.04
2019-01-26T19:03:33.420Z,-4.17
2019-01-26T19:06:03.285Z,-4.13
2019-01-26T19:08:32.840Z,-4.13
2019-01-26T19:11:02.420Z,-4.07
2019-01-26T19:13:32.414Z,-3.93
2019-01-26T19:16:02.086Z,-3.86
2019-01-26T19:18:31.854Z,-3.82
2019-01-26T19:21:03.263Z,-3.86
2019-01-26T19:23:32.160Z,-3.89
2019-01-26T19:26:01.835Z,-3.92
2019-01-26T19:28:31.584Z,-4.06
2019-01-26T19:31:01.104Z,-4.01
2019-01-26T19:33:30.866Z,-4.05
2019-01-26T19:36:00.804Z,-4.03
2019-01-26T19:38:30.292Z,-4.01
2019-01-26T19:40:59.798Z,-3.96
2019-01-26T19:43:29.431Z,-3.96
2019-01-26T19:45:58.758Z,-3.96
2019-01-26T19:48:28.255Z,-3.98
2019-01-26T19:50:57.839Z,-4.04
2019-01-26T19:53:27.553Z,-4.01
2019-01-26T19:55:57.083Z,-4.19
2019-01-26T19:58:26.767Z,-4.22
2019-01-26T20:00:56.198Z,-4.14
2019-01-26T20:03:25.800Z,-4.14
2019-01-26T20:05:55.319Z,-4.16
2019-01-26T20:08:25.059Z,-4.15
2019-01-26T20:10:54.663Z,-4.18
2019-01-26T20:13:24.541Z,-4.14
2019-01-26T20:15:54.064Z,-4.08
2019-01-26T20:18:24.017Z,-4.10
2019-01-26T20:20:53.709Z,-4.10
2019-01-26T20:23:23.242Z,-4.12
2019-01-26T20:25:52.640Z,-4.12
2019-01-26T20:28:22.537Z,-4.19
2019-01-26T20:30:52.163Z,-4.18
2019-01-26T20:33:21.733Z,-4.25
2019-01-26T20:35:51.210Z,-4.40
2019-01-26T20:38:20.782Z,-4.33
2019-01-26T20:40:50.495Z,-4.31
2019-01-26T20:43:20.152Z,-4.32
2019-01-26T20:45:49.712Z,-4.49
2019-01-26T20:48:19.372Z,-4.37
2019-01-26T20:50:49.137Z,-4.36
2019-01-26T20:53:18.615Z,-4.29
2019-01-26T20:55:48.398Z,-4.39
2019-01-26T20:58:18.063Z,-4.31
2019-01-26T21:00:48.003Z,-4.33
2019-01-26T21:03:18.057Z,-4.50
2019-01-26T21:05:47.791Z,-4.49
2019-01-26T21:08:17.428Z,-4.54
2019-01-26T21:10:47.099Z,-4.56
2019-01-26T21:13:16.821Z,-4.51
2019-01-26T21:15:46.439Z,-4.51
2019-01-26T21:18:16.190Z,-4.60
2019-01-26T21:20:46.732Z,-4.75
2019-01-26T21:23:18.899Z,-4.67
2019-01-26T21:25:48.684Z,-4.77
2019-01-26T21:28:18.371Z,-4.64
2019-01-26T21:30:47.984Z,-4.65
2019-01-26T21:33:17.556Z,-4.62
2019-01-26T21:35:47.221Z,-4.56
2019-01-26T21:38:16.906Z,-4.62
2019-01-26T21:40:46.845Z,-4.55
2019-01-26T21:43:16.544Z,-4.42
2019-01-26T21:45:46.288Z,-4.54
2019-01-26T21:48:15.995Z,-4.54
2019-01-26T21:50:45.459Z,-4.48
2019-01-26T21:53:15.060Z,-4.59
2019-01-26T21:55:44.704Z,-4.55
2019-01-26T21:58:14.268Z,-4.47
2019-01-26T22:00:43.813Z,-4.47
2019-01-26T22:03:13.550Z,-4.64
2019-01-26T22:05:43.107Z,-4.66
2019-01-26T22:08:12.889Z,-4.59
2019-01-26T22:10:42.375Z,-4.56
2019-01-26T22:13:11.931Z,-4.59
2019-01-26T22:15:41.469Z,-4.57
2019-01-26T22:18:11.194Z,-4.58
2019-01-26T22:20:40.765Z,-4.58
2019-01-26T22:23:10.363Z,-4.56
2019-01-26T22:25:40.295Z,-4.55
2019-01-26T22:28:09.995Z,-4.46
2019-01-26T22:30:39.713Z,-4.47
2019-01-26T22:33:09.322Z,-4.45
2019-01-26T22:35:39.052Z,-4.55
2019-01-26T22:38:08.848Z,-4.43
2019-01-26T22:40:38.651Z,-4.45
2019-01-26T22:43:08.391Z,-4.42
2019-01-26T22:45:38.162Z,-4.40
2019-01-26T22:48:07.954Z,-4.40
2019-01-26T22:50:37.531Z,-4.43
2019-01-26T22:53:07.175Z,-4.45
2019-01-26T22:55:37.119Z,-4.43
2019-01-26T22:58:07.140Z,-4.36
2019-01-26T23:01:18.319Z,-4.35
2019-01-26T23:06:03.495Z,-4.46
2019-01-26T23:08:33.436Z,-4.51
2019-01-26T23:11:11.066Z,-4.44
2019-01-26T23:14:10.699Z,-4.40
2019-01-26T23:18:54.627Z,-4.40
2019-01-26T23:21:35.071Z,-4.36
2019-01-26T23:24:43.303Z,-4.45
2019-01-26T23:27:31.645Z,-4.37
2019-01-26T23:31:15.147Z,-4.36
2019-01-26T23:33:45.383Z,-4.41
2019-01-26T23:36:15.395Z,-4.46
2019-01-26T23:38:45.155Z,-4.33
2019-01-26T23:41:15.006Z,-4.34
2019-01-26T23:43:44.730Z,-4.34
2019-01-26T23:46:14.283Z,-4.36
2019-01-26T23:48:44.013Z,-4.35
2019-01-26T23:51:13.731Z,-4.28
2019-01-26T23:53:43.392Z,-4.29
2019-01-26T23:56:13.311Z,-4.29
2019-01-26T23:58:42.996Z,-4.27
